Flight Track Log - Related Links

Times and Time Zones

All times are in EDT time to prevent confusion due to time zone crossing. See the PT-MBZ flight status page for this flight to view local times or setup timezone preferences in your user account.

Time Position Orientation Groundspeed Altitude Reporting Facility
EDT Latitude Longitude Course Direction KTS MPH feet Rate Location/Type
Thu 08:41:21 PM 18.5000 -67.0667 139° Southeast 170 196 2,900  Level San Juan Center
Thu 08:42:22 PM 18.4500 -67.0500 162° South 210 242 5,400 2,132 Climbing San Juan Center
Thu 08:43:22 PM 18.4000 -67.0167 148° Southeast 250 288 7,200 2,000 Climbing San Juan Center
Thu 08:44:22 PM 18.3333 -66.9667 145° Southeast 270 311 9,400 2,231 Climbing San Juan Center
Thu 08:45:23 PM 18.2667 -66.9167 145° Southeast 280 322 11,700 2,132 Climbing San Juan Center
Thu 08:46:00 PM 18.0154 -66.6555 139° Southeast  Level Estimated
Thu 08:46:23 PM 18.2000 -66.8500 136° Southeast 300 345 13,700  Level San Juan Center
Thu 08:47:23 PM 18.1333 -66.8000 145° Southeast 310 357 15,200 1,686 Climbing San Juan Center
Thu 08:48:24 PM 18.0667 -66.7333 136° Southeast 320 368 17,100 1,736 Climbing San Juan Center
Thu 08:49:24 PM 18.0000 -66.6667 136° Southeast 340 391 18,700 1,550 Climbing San Juan Center
Thu 08:50:24 PM 17.9167 -66.6167 150° Southeast 340 391 20,200 1,388 Climbing San Juan Center
Thu 08:51:25 PM 17.8500 -66.5500 136° Southeast 350 403 21,500 1,289 Climbing San Juan Center
Thu 08:52:25 PM 17.7667 -66.4833 143° Southeast 370 426 22,800 1,100 Climbing San Juan Center
Thu 08:53:25 PM 17.6833 -66.4000 136° Southeast 380 437 23,700 1,041 Climbing San Juan Center
Thu 08:54:26 PM 17.5833 -66.3167 142° Southeast 390 449 24,900 893 Climbing San Juan Center
Thu 08:55:26 PM 17.5000 -66.2500 143° Southeast 400 460 25,500 650 Climbing San Juan Center
Thu 08:56:26 PM 17.4167 -66.1667 136° Southeast 420 483 26,200 900 Climbing San Juan Center
Thu 08:57:26 PM 17.3167 -66.0833 141° Southeast 430 495 27,300 1,041 Climbing San Juan Center
Thu 08:58:27 PM 17.2167 -66.0167 148° Southeast 430 495 28,300 942 Climbing San Juan Center
Thu 08:59:27 PM 17.1333 -65.9333 136° Southeast 430 495 29,200 850 Climbing San Juan Center
Thu 09:00:27 PM 17.0333 -65.8500 141° Southeast 430 495 30,000 600 Climbing San Juan Center
Thu 09:01:27 PM 16.9500 -65.7667 136° Southeast 430 495 30,400 298 Climbing San Juan Center
Thu 09:02:28 PM 16.8500 -65.7000 147° Southeast 450 518 30,600 446 Climbing San Juan Center
Thu 09:03:28 PM 16.7500 -65.6167 141° Southeast 450 518 31,300 550 Climbing San Juan Center
Thu 09:04:28 PM 16.6500 -65.5333 141° Southeast 450 518 31,700 446 Climbing San Juan Center
Thu 09:05:29 PM 16.5500 -65.4500 141° Southeast 450 518 32,200 793 Climbing San Juan Center
Thu 09:06:29 PM 16.4667 -65.3667 136° Southeast 450 518 33,300 1,400 Climbing San Juan Center
Thu 09:07:29 PM 16.3667 -65.2833 141° Southeast 410 472 35,000 843 Climbing San Juan Center
Thu 09:08:30 PM 16.2833 -65.2167 142° Southeast 410 472 35,000  Level San Juan Center
Thu 09:09:30 PM 16.2000 -65.1333 136° Southeast 420 483 35,000  Level San Juan Center
Thu 09:10:30 PM 16.0833 -65.0500 146° Southeast 440 506 35,000  Level San Juan Center
Thu 09:11:31 PM 16.0000 -64.9833 142° Southeast 430 495 35,000  Level San Juan Center
Thu 09:12:31 PM 15.9000 -64.9000 141° Southeast 430 495 35,000  Level San Juan Center
Thu 09:13:31 PM 15.8167 -64.8333 142° Southeast 430 495 35,000  Level San Juan Center
Thu 09:14:32 PM 15.7167 -64.7500 141° Southeast 450 518 35,000  Level San Juan Center
Thu 09:15:32 PM 15.6167 -64.6667 141° Southeast 440 506 35,000  Level San Juan Center
Thu 09:16:32 PM 15.5333 -64.5833 136° Southeast 450 518 35,000  Level San Juan Center
Thu 09:17:33 PM 15.4333 -64.5000 141° Southeast 430 495 35,000  Level San Juan Center
Thu 09:18:33 PM 15.3333 -64.4167 141° Southeast 440 506 35,000  Level San Juan Center
Thu 09:21:24 PM 15.0500 -64.1833 141° Southeast 430 495 35,000  Level San Juan Center
Thu 09:23:00 PM 14.9232 -64.0579 136° Southeast  Level FlightAware Approximate
Thu 09:30:00 PM 14.3660 -63.5127 137° Southeast  Level FlightAware Approximate
Thu 09:31:00 PM 14.2863 -63.4351 137° Southeast  Level FlightAware Approximate
Thu 09:32:00 PM 14.2066 -63.3575 137° Southeast  Level FlightAware Approximate
Thu 09:33:00 PM 14.1269 -63.2799 137° Southeast  Level FlightAware Approximate
Thu 09:34:00 PM 14.0471 -63.2024 137° Southeast  Level FlightAware Approximate
Thu 09:35:00 PM 13.9673 -63.1250 137° Southeast  Level FlightAware Approximate
Thu 09:36:00 PM 13.8875 -63.0476 137° Southeast  Level FlightAware Approximate
Thu 09:37:00 PM 13.8076 -62.9702 137° Southeast  Level FlightAware Approximate
Thu 09:38:00 PM 13.7277 -62.8930 137° Southeast  Level FlightAware Approximate
Thu 09:39:00 PM 13.6478 -62.8158 137° Southeast  Level FlightAware Approximate
Thu 09:40:00 PM 13.5679 -62.7386 137° Southeast  Level FlightAware Approximate
Thu 09:41:00 PM 13.4880 -62.6614 137° Southeast  Level FlightAware Approximate
Thu 09:42:00 PM 13.4080 -62.5844 137° Southeast  Level FlightAware Approximate
Thu 09:43:00 PM 13.3280 -62.5074 137° Southeast  Level FlightAware Approximate
Thu 09:44:00 PM 13.2480 -62.4304 137° Southeast  Level FlightAware Approximate
Thu 09:45:00 PM 13.1680 -62.3535 137° Southeast  Level FlightAware Approximate
Thu 09:46:00 PM 13.0879 -62.2766 137° Southeast  Level FlightAware Approximate
Thu 09:47:00 PM 13.0078 -62.1998 137° Southeast  Level FlightAware Approximate
Thu 09:48:00 PM 12.9277 -62.1230 137° Southeast  Level FlightAware Approximate
Thu 09:49:00 PM 12.8476 -62.0463 137° Southeast  Level FlightAware Approximate
Thu 09:50:00 PM 12.7674 -61.9696 137° Southeast  Level FlightAware Approximate
Thu 09:51:00 PM 12.6873 -61.8930 137° Southeast  Level FlightAware Approximate
Thu 09:52:00 PM 12.6071 -61.8164 137° Southeast  Level FlightAware Approximate
Thu 09:53:00 PM 12.5268 -61.7399 137° Southeast  Level FlightAware Approximate
Thu 09:54:00 PM 12.4466 -61.6634 137° Southeast  Level FlightAware Approximate
Thu 09:55:00 PM 12.3664 -61.5870 137° Southeast  Level FlightAware Approximate
Thu 09:56:00 PM 12.2861 -61.5106 137° Southeast  Level FlightAware Approximate
Thu 09:57:00 PM 12.2058 -61.4343 137° Southeast  Level FlightAware Approximate
Thu 09:58:00 PM 12.1254 -61.3580 137° Southeast  Level FlightAware Approximate
Thu 09:59:00 PM 12.0451 -61.2817 137° Southeast  Level FlightAware Approximate
Thu 10:00:00 PM 11.9647 -61.2055 137° Southeast  Level FlightAware Approximate
Thu 10:01:00 PM 11.8843 -61.1294 137° Southeast  Level FlightAware Approximate
Thu 10:02:00 PM 11.8039 -61.0533 137° Southeast  Level FlightAware Approximate
Thu 10:03:00 PM 11.7235 -60.9772 137° Southeast  Level FlightAware Approximate
Thu 10:04:00 PM 11.6431 -60.9012 137° Southeast  Level FlightAware Approximate
Thu 10:05:00 PM 11.5626 -60.8252 137° Southeast  Level FlightAware Approximate
Thu 10:06:00 PM 11.4821 -60.7493 137° Southeast  Level FlightAware Approximate
Thu 10:07:00 PM 11.4016 -60.6734 137° Southeast  Level FlightAware Approximate
Thu 10:08:00 PM 11.3211 -60.5975 137° Southeast  Level FlightAware Approximate
Thu 10:09:00 PM 11.2405 -60.5217 137° Southeast  Level FlightAware Approximate
Thu 10:10:00 PM 11.1600 -60.4460 137° Southeast  Level FlightAware Approximate
Thu 10:11:00 PM 11.0794 -60.3702 137° Southeast  Level FlightAware Approximate
Thu 10:12:00 PM 10.9988 -60.2946 137° Southeast  Level FlightAware Approximate
Thu 10:13:00 PM 10.9182 -60.2189 137° Southeast  Level FlightAware Approximate
Thu 10:14:00 PM 10.8375 -60.1433 137° Southeast  Level FlightAware Approximate
Thu 10:15:00 PM 10.7569 -60.0678 137° Southeast  Level FlightAware Approximate
Thu 10:16:00 PM 10.6762 -59.9923 137° Southeast  Level FlightAware Approximate
Thu 10:17:00 PM 10.5955 -59.9168 137° Southeast  Level FlightAware Approximate
Thu 10:18:00 PM 10.5148 -59.8414 137° Southeast  Level FlightAware Approximate
Thu 10:19:00 PM 10.4341 -59.7660 137° Southeast  Level FlightAware Approximate
Thu 10:20:00 PM 10.3533 -59.6906 137° Southeast  Level FlightAware Approximate
Thu 10:21:00 PM 10.2726 -59.6153 137° Southeast  Level FlightAware Approximate
Thu 10:22:00 PM 10.1918 -59.5400 137° Southeast  Level FlightAware Approximate
Thu 10:23:00 PM 10.1110 -59.4648 137° Southeast  Level FlightAware Approximate
Thu 10:24:00 PM 10.0302 -59.3896 137° Southeast  Level FlightAware Approximate
Thu 10:25:00 PM 9.9493 -59.3144 138° Southeast  Level FlightAware Approximate
Thu 10:26:00 PM 9.8685 -59.2393 138° Southeast  Level FlightAware Approximate
Thu 10:27:00 PM 9.7876 -59.1642 138° Southeast  Level FlightAware Approximate
Thu 10:28:00 PM 9.7067 -59.0891 138° Southeast  Level FlightAware Approximate
Thu 10:29:00 PM 9.6258 -59.0141 138° Southeast  Level FlightAware Approximate
Thu 10:30:00 PM 9.5449 -58.9391 138° Southeast  Level FlightAware Approximate
Thu 10:31:00 PM 9.4640 -58.8642 138° Southeast  Level FlightAware Approximate
Thu 10:32:00 PM 9.3830 -58.7893 138° Southeast  Level FlightAware Approximate
Thu 10:33:00 PM 9.3021 -58.7144 138° Southeast  Level FlightAware Approximate
Thu 10:34:00 PM 9.2211 -58.6395 138° Southeast  Level FlightAware Approximate
Thu 10:35:00 PM 9.1401 -58.5647 138° Southeast  Level FlightAware Approximate
Thu 10:36:00 PM 9.0591 -58.4900 138° Southeast  Level FlightAware Approximate
Thu 10:37:00 PM 8.9781 -58.4152 138° Southeast  Level FlightAware Approximate
Thu 10:38:00 PM 8.8970 -58.3405 138° Southeast  Level FlightAware Approximate
Thu 10:39:00 PM 8.8160 -58.2658 138° Southeast  Level FlightAware Approximate
Thu 10:40:00 PM 8.7349 -58.1912 138° Southeast  Level FlightAware Approximate
Thu 10:41:00 PM 8.6538 -58.1166 138° Southeast  Level FlightAware Approximate
Thu 10:42:00 PM 8.5727 -58.0420 138° Southeast  Level FlightAware Approximate
Thu 10:43:00 PM 8.4916 -57.9675 138° Southeast  Level FlightAware Approximate
Thu 10:44:00 PM 8.4105 -57.8930 138° Southeast  Level FlightAware Approximate
Thu 10:45:00 PM 8.3296 -57.8182 138° Southeast  Level FlightAware Approximate
Thu 10:46:00 PM 8.2487 -57.7435 138° Southeast  Level FlightAware Approximate
Thu 10:47:00 PM 8.1678 -57.6687 138° Southeast  Level FlightAware Approximate
Thu 10:48:00 PM 8.0869 -57.5940 138° Southeast  Level FlightAware Approximate
Thu 10:49:00 PM 8.0060 -57.5194 138° Southeast  Level FlightAware Approximate
Thu 10:50:00 PM 7.9251 -57.4447 138° Southeast  Level FlightAware Approximate
Thu 10:51:00 PM 7.8441 -57.3701 138° Southeast  Level FlightAware Approximate
Thu 10:52:00 PM 7.7632 -57.2955 138° Southeast  Level FlightAware Approximate
Thu 10:53:00 PM 7.6822 -57.2210 138° Southeast  Level FlightAware Approximate
Thu 10:54:00 PM 7.6012 -57.1465 138° Southeast  Level FlightAware Approximate
Thu 10:55:00 PM 7.5202 -57.0720 138° Southeast  Level FlightAware Approximate
Thu 10:56:00 PM 7.4392 -56.9975 138° Southeast  Level FlightAware Approximate
Thu 10:57:00 PM 7.3582 -56.9230 138° Southeast  Level FlightAware Approximate
Thu 10:58:00 PM 7.2772 -56.8486 138° Southeast  Level FlightAware Approximate
Thu 10:59:00 PM 7.1961 -56.7743 138° Southeast  Level FlightAware Approximate
Thu 11:00:00 PM 7.1151 -56.6998 137° Southeast  Level FlightAware Approximate
Thu 11:01:00 PM 7.0343 -56.6252 137° Southeast  Level FlightAware Approximate
Thu 11:02:00 PM 6.9535 -56.5506 138° Southeast  Level FlightAware Approximate
Thu 11:03:00 PM 6.8743 -56.4743 135° Southeast  Level FlightAware Approximate
Thu 11:04:00 PM 6.7948 -56.3984 140° Southeast  Level FlightAware Approximate
Thu 11:05:00 PM 6.7104 -56.3281 140° Southeast  Level FlightAware Approximate
Thu 11:06:00 PM 6.6259 -56.2577 140° Southeast  Level FlightAware Approximate
Thu 11:07:00 PM 6.5474 -56.1807 135° Southeast  Level FlightAware Approximate
Thu 11:08:00 PM 6.4697 -56.1030 135° Southeast  Level FlightAware Approximate
Thu 11:09:00 PM 6.3914 -56.0259 139° Southeast  Level FlightAware Approximate
Thu 11:10:00 PM 6.3082 -55.9540 139° Southeast  Level FlightAware Approximate
Thu 11:11:00 PM 6.2251 -55.8822 139° Southeast  Level FlightAware Approximate
Thu 11:12:00 PM 6.1419 -55.8104 139° Southeast  Level FlightAware Approximate
Thu 11:13:00 PM 6.0587 -55.7386 139° Southeast  Level FlightAware Approximate
Thu 11:14:00 PM 5.9793 -55.6627 135° Southeast  Level FlightAware Approximate
Thu 11:15:00 PM 5.9009 -55.5858 138° Southeast  Level FlightAware Approximate
Thu 11:16:00 PM 5.8192 -55.5123 138° Southeast  Level FlightAware Approximate
Thu 11:17:00 PM 5.7381 -55.4381 135° Southeast  Level FlightAware Approximate
Thu 11:18:00 PM 5.6604 -55.3604 135° Southeast  Level FlightAware Approximate
Thu 11:19:00 PM 5.5779 -55.2946 135° Southeast  Level FlightAware Approximate
Thu 11:20:00 PM 5.4936 -55.2249 127° Southeast  Level FlightAware Approximate
Thu 11:21:00 PM 5.4500 -55.1833 270° West  Level FlightAware Approximate
Thu 11:22:00 PM 5.4528 -55.1878 270° West  Level Estimated
Thu 11:23:00 PM 5.4500 -55.1833 270° West  Level FlightAware Approximate
Thu 11:24:00 PM 5.4528 -55.1878 270° West  Level Estimated
Thu 11:25:00 PM 5.4500 -55.1833 270° West  Level FlightAware Approximate
Thu 11:26:00 PM 5.4528 -55.1878 270° West  Level Estimated
Thu 11:27:00 PM 5.4500 -55.1833 270° West  Level FlightAware Approximate
Thu 11:28:00 PM 5.4528 -55.1878 270° West  Level Estimated
Thu 11:29:00 PM 5.4500 -55.1833 270° West  Level FlightAware Approximate
Thu 11:30:00 PM 5.4528 -55.1878 270° West  Level Estimated
Thu 11:31:00 PM 5.4500 -55.1833 270° West  Level FlightAware Approximate
Thu 11:32:00 PM 5.4528 -55.1878 270° West  Level Estimated
Thu 11:33:00 PM 5.4500 -55.1833 270° West  Level FlightAware Approximate
Thu 11:34:00 PM 5.4528 -55.1878 270° West  Level Estimated
Thu 11:35:00 PM 5.4500 -55.1833 270° West  Level FlightAware Approximate
Thu 11:36:00 PM 5.4528 -55.1878 270° West  Level Estimated

Login

Don't have an account? Register now (free) for customized features, flight alerts, and more!